createdAt,value
2019-04-22T00:01:43.471Z,95554.00
2019-04-22T00:04:23.499Z,95551.00
2019-04-22T00:07:09.824Z,95549.00
2019-04-22T00:09:56.441Z,95547.00
2019-04-22T00:12:28.027Z,95545.00
2019-04-22T00:14:52.825Z,95531.00
2019-04-22T00:17:38.649Z,95531.00
2019-04-22T00:20:04.305Z,95534.00
2019-04-22T00:22:51.864Z,95529.00
2019-04-22T00:25:17.686Z,95531.00
2019-04-22T00:27:47.681Z,95515.00
2019-04-22T00:30:32.429Z,95515.00
2019-04-22T00:33:26.775Z,95512.00
2019-04-22T00:36:04.411Z,95516.00
2019-04-22T00:38:42.031Z,95512.00
2019-04-22T00:41:16.685Z,95505.00
2019-04-22T00:43:48.059Z,95508.00
2019-04-22T00:46:22.643Z,95505.00
2019-04-22T00:49:20.481Z,95505.00
2019-04-22T00:51:28.594Z,95500.00
2019-04-22T00:54:03.375Z,95495.00
2019-04-22T00:56:35.752Z,95497.00
2019-04-22T00:59:11.956Z,95497.00
2019-04-22T01:01:45.309Z,95503.00
2019-04-22T01:04:20.383Z,95496.00
2019-04-22T01:06:51.313Z,95498.00
2019-04-22T01:09:25.403Z,95499.00
2019-04-22T01:12:04.683Z,95473.00
2019-04-22T01:14:37.236Z,95476.00
2019-04-22T01:17:06.408Z,95466.00
2019-04-22T01:19:45.065Z,95470.00
2019-04-22T01:22:16.344Z,95479.00
2019-04-22T01:24:48.615Z,95471.00
2019-04-22T01:27:16.309Z,95470.00
2019-04-22T01:29:46.812Z,95467.00
2019-04-22T01:32:14.345Z,95466.00
2019-04-22T01:34:56.538Z,95469.00
2019-04-22T01:37:35.486Z,95468.00
2019-04-22T01:40:21.391Z,95468.00
2019-04-22T01:42:53.647Z,95468.00
2019-04-22T01:45:25.851Z,95470.00
2019-04-22T01:48:00.520Z,95482.00
2019-04-22T01:50:32.103Z,95460.00
2019-04-22T01:53:06.007Z,95458.00
2019-04-22T01:55:39.100Z,95459.00
2019-04-22T01:58:09.455Z,95442.00
2019-04-22T02:00:44.353Z,95448.00
2019-04-22T02:03:17.682Z,95441.00
2019-04-22T02:05:50.570Z,95441.00
2019-04-22T02:08:31.378Z,95436.00
2019-04-22T02:11:01.050Z,95436.00
2019-04-22T02:13:36.733Z,95431.00
2019-04-22T02:16:07.260Z,95434.00
2019-04-22T02:18:46.350Z,95421.00
2019-04-22T02:21:13.709Z,95415.00
2019-04-22T02:26:29.916Z,95415.00
2019-04-22T02:28:53.674Z,95415.00
2019-04-22T02:34:13.730Z,95409.00
2019-04-22T02:39:20.162Z,95407.00
2019-04-22T02:41:50.865Z,95399.00
2019-04-22T02:44:32.602Z,95395.00
2019-04-22T02:49:31.566Z,95394.00
2019-04-22T02:51:59.758Z,95388.00
2019-04-22T02:57:24.054Z,95383.00
2019-04-22T02:59:53.896Z,95378.00
2019-04-22T03:02:49.074Z,95382.00
2019-04-22T03:04:55.612Z,95375.00
2019-04-22T03:07:24.922Z,95375.00
2019-04-22T03:15:07.846Z,95366.00
2019-04-22T03:18:01.317Z,95364.00
2019-04-22T03:20:11.109Z,95360.00
2019-04-22T03:22:55.650Z,95363.00
2019-04-22T03:25:51.662Z,95364.00
2019-04-22T03:27:56.321Z,95359.00
2019-04-22T03:36:11.971Z,95350.00
2019-04-22T03:38:12.082Z,95344.00
2019-04-22T03:41:03.331Z,95349.00
2019-04-22T03:43:24.008Z,95344.00
2019-04-22T03:45:46.412Z,95343.00
2019-04-22T03:48:26.371Z,95332.00
2019-04-22T03:51:07.498Z,95330.00
2019-04-22T03:53:33.348Z,95330.00
2019-04-22T03:56:29.076Z,95331.00
2019-04-22T03:58:52.771Z,95324.00
2019-04-22T04:01:33.719Z,95323.00
2019-04-22T04:04:01.021Z,95321.00
2019-04-22T04:06:37.035Z,95316.00
2019-04-22T04:08:59.239Z,95324.00
2019-04-22T04:11:43.234Z,95322.00
2019-04-22T04:14:12.324Z,95326.00
2019-04-22T04:16:52.103Z,95325.00
2019-04-22T04:29:45.731Z,95319.00
2019-04-22T04:32:25.162Z,95321.00
2019-04-22T04:37:38.913Z,95317.00
2019-04-22T04:40:00.359Z,95323.00
2019-04-22T04:45:10.917Z,95310.00
2019-04-22T04:50:35.359Z,95314.00
2019-04-22T04:55:17.582Z,95318.00
2019-04-22T05:00:40.114Z,95318.00
2019-04-22T05:02:53.128Z,95310.00
2019-04-22T05:07:56.005Z,95309.00
2019-04-22T05:10:44.815Z,95311.00
2019-04-22T05:13:01.324Z,95309.00
2019-04-22T05:16:10.587Z,95314.00
2019-04-22T05:23:24.619Z,95319.00
2019-04-22T05:25:55.148Z,95314.00
2019-04-22T05:28:23.906Z,95310.00
2019-04-22T05:31:00.517Z,95303.00
2019-04-22T05:33:34.877Z,95308.00
2019-04-22T05:36:07.598Z,95301.00
2019-04-22T05:38:50.164Z,95298.00
2019-04-22T05:41:17.972Z,95293.00
2019-04-22T05:43:56.366Z,95287.00
2019-04-22T05:46:26.171Z,95288.00
2019-04-22T05:49:15.169Z,95281.00
2019-04-22T05:51:31.319Z,95280.00
2019-04-22T05:54:05.488Z,95284.00
2019-04-22T05:56:37.175Z,95280.00
2019-04-22T05:59:14.730Z,95276.00
2019-04-22T06:04:23.624Z,95271.00
2019-04-22T06:06:58.380Z,95279.00
2019-04-22T06:09:33.517Z,95268.00
2019-04-22T06:11:59.104Z,95261.00
2019-04-22T06:14:39.374Z,95263.00
2019-04-22T06:17:24.745Z,95254.00
2019-04-22T06:19:50.850Z,95250.00
2019-04-22T06:22:37.630Z,95252.00
2019-04-22T06:25:00.962Z,95259.00
2019-04-22T06:27:35.439Z,95248.00
2019-04-22T06:30:09.727Z,95249.00
2019-04-22T06:32:39.607Z,95242.00
2019-04-22T06:35:23.367Z,95240.00
2019-04-22T06:38:12.496Z,95235.00
2019-04-22T06:40:26.884Z,95241.00
2019-04-22T06:43:03.412Z,95241.00
2019-04-22T06:48:10.866Z,95229.00
2019-04-22T06:50:41.714Z,95229.00
2019-04-22T06:53:17.569Z,95225.00
2019-04-22T06:55:48.220Z,95214.00
2019-04-22T06:58:20.055Z,95224.00
2019-04-22T07:00:55.761Z,95217.00
2019-04-22T07:06:07.387Z,95212.00
2019-04-22T07:11:11.392Z,95208.00
2019-04-22T07:13:57.438Z,95202.00
2019-04-22T07:16:47.110Z,95195.00
2019-04-22T07:18:56.710Z,95186.00
2019-04-22T07:21:30.624Z,95189.00
2019-04-22T07:24:22.769Z,95191.00
2019-04-22T07:26:42.448Z,95189.00
2019-04-22T07:29:17.180Z,95186.00
2019-04-22T07:31:51.096Z,95183.00
2019-04-22T07:34:26.496Z,95185.00
2019-04-22T07:37:20.026Z,95170.00
2019-04-22T07:39:35.549Z,95170.00
2019-04-22T07:42:10.452Z,95170.00
2019-04-22T07:44:43.307Z,95166.00
2019-04-22T07:47:18.556Z,95083.00
2019-04-22T07:52:24.570Z,95166.00
2019-04-22T07:54:59.517Z,95149.00
2019-04-22T08:00:09.023Z,95160.00
2019-04-22T08:02:44.301Z,95154.00
2019-04-22T08:05:12.501Z,95156.00
2019-04-22T08:07:52.472Z,95151.00
2019-04-22T08:10:34.404Z,95147.00
2019-04-22T08:12:57.684Z,95137.00
2019-04-22T08:15:34.955Z,95149.00
2019-04-22T08:18:06.879Z,95144.00
2019-04-22T08:25:47.591Z,95127.00
2019-04-22T08:28:26.590Z,95130.00
2019-04-22T08:33:35.418Z,95123.00
2019-04-22T08:36:18.410Z,95115.00
2019-04-22T08:38:39.510Z,95118.00
2019-04-22T08:41:28.949Z,95124.00
2019-04-22T08:46:34.142Z,95107.00
2019-04-22T08:48:59.085Z,95105.00
2019-04-22T08:51:49.367Z,95104.00
2019-04-22T08:56:58.448Z,95099.00
2019-04-22T09:01:52.000Z,95086.00
2019-04-22T09:04:20.019Z,95106.00
2019-04-22T09:07:20.955Z,95091.00
2019-04-22T09:09:36.303Z,95104.00
2019-04-22T09:12:08.409Z,95090.00
2019-04-22T09:14:44.589Z,95087.00
2019-04-22T09:17:17.408Z,95094.00
2019-04-22T09:19:53.283Z,95084.00
2019-04-22T09:22:21.977Z,95080.00
2019-04-22T09:24:56.027Z,95093.00
2019-04-22T09:30:10.486Z,95075.00
2019-04-22T09:35:09.947Z,95067.00
2019-04-22T09:40:22.408Z,95067.00
2019-04-22T09:42:56.132Z,95050.00
2019-04-22T09:45:27.473Z,95055.00
2019-04-22T09:48:08.679Z,95052.00
2019-04-22T09:50:43.114Z,95054.00
2019-04-22T09:53:18.215Z,95045.00
2019-04-22T09:55:45.118Z,95049.00
2019-04-22T09:58:20.725Z,95042.00
2019-04-22T10:01:33.277Z,95028.00
2019-04-22T10:04:00.991Z,95038.00
2019-04-22T10:06:35.333Z,95033.00
2019-04-22T10:11:56.353Z,95018.00
2019-04-22T10:14:23.902Z,95010.00
2019-04-22T10:16:47.888Z,95011.00
2019-04-22T10:19:29.997Z,95016.00
2019-04-22T10:22:05.240Z,95004.00
2019-04-22T10:24:38.821Z,94997.00
2019-04-22T10:27:18.627Z,94999.00
2019-04-22T10:29:54.053Z,94986.00
2019-04-22T10:32:27.097Z,94994.00
2019-04-22T10:34:48.571Z,94990.00
2019-04-22T10:37:18.346Z,94988.00
2019-04-22T10:39:56.264Z,94992.00
2019-04-22T10:42:25.373Z,94987.00
2019-04-22T10:44:57.380Z,94982.00
2019-04-22T10:47:29.883Z,94988.00
2019-04-22T10:50:02.787Z,94972.00
2019-04-22T10:52:35.191Z,94976.00
2019-04-22T10:55:09.973Z,94968.00
2019-04-22T10:57:42.255Z,94970.00
2019-04-22T11:00:15.626Z,94961.00
2019-04-22T11:02:47.872Z,94961.00
2019-04-22T11:05:20.176Z,94950.00
2019-04-22T11:07:57.936Z,94962.00
2019-04-22T11:10:36.764Z,94957.00
2019-04-22T11:13:00.941Z,94955.00
2019-04-22T11:15:33.000Z,94952.00
2019-04-22T11:18:07.422Z,94932.00
2019-04-22T11:20:41.821Z,94950.00
2019-04-22T11:23:16.514Z,94934.00
2019-04-22T11:25:50.039Z,94930.00
2019-04-22T11:28:23.374Z,94930.00
2019-04-22T11:30:56.361Z,94927.00
2019-04-22T11:33:30.423Z,94908.00
2019-04-22T11:36:03.863Z,94909.00
2019-04-22T11:38:38.949Z,94911.00
2019-04-22T11:41:09.758Z,94909.00
2019-04-22T11:43:42.985Z,94904.00
2019-04-22T11:46:15.696Z,94917.00
2019-04-22T11:48:49.796Z,94896.00
2019-04-22T11:51:22.117Z,94897.00
2019-04-22T11:53:54.745Z,94899.00
2019-04-22T11:56:27.191Z,94897.00
2019-04-22T11:59:00.657Z,94886.00
2019-04-22T12:01:33.128Z,94877.00
2019-04-22T12:04:05.507Z,94893.00
2019-04-22T12:06:37.929Z,94884.00
2019-04-22T12:09:12.815Z,94889.00
2019-04-22T12:11:44.650Z,94885.00
2019-04-22T12:14:18.214Z,94884.00
2019-04-22T12:16:50.005Z,94881.00
2019-04-22T12:19:23.217Z,94875.00
2019-04-22T12:21:55.250Z,94877.00
2019-04-22T12:24:28.097Z,94865.00
2019-04-22T12:27:02.145Z,94880.00
2019-04-22T12:29:35.144Z,94866.00
2019-04-22T12:32:07.619Z,94862.00
2019-04-22T12:34:39.739Z,94864.00
2019-04-22T12:37:14.838Z,94867.00
2019-04-22T12:39:47.464Z,94855.00
2019-04-22T12:42:19.698Z,94855.00
2019-04-22T12:44:51.573Z,94857.00
2019-04-22T12:47:24.423Z,94846.00
2019-04-22T12:50:08.970Z,94842.00
2019-04-22T12:52:37.350Z,94829.00
2019-04-22T12:55:03.901Z,94826.00
2019-04-22T12:57:36.834Z,94834.00
2019-04-22T13:00:13.585Z,94817.00
2019-04-22T13:02:45.542Z,94810.00
2019-04-22T13:05:20.182Z,94814.00
2019-04-22T13:07:53.677Z,94807.00
2019-04-22T13:10:33.660Z,94808.00
2019-04-22T13:13:00.860Z,94811.00
2019-04-22T13:15:33.029Z,94797.00
2019-04-22T13:18:14.822Z,94791.00
2019-04-22T13:20:38.860Z,94801.00
2019-04-22T13:23:11.660Z,94777.00
2019-04-22T13:25:44.880Z,94784.00
2019-04-22T13:28:18.641Z,94784.00
2019-04-22T13:30:52.745Z,94777.00
2019-04-22T13:33:25.095Z,94772.00
2019-04-22T13:35:57.789Z,94764.00
2019-04-22T13:38:31.137Z,94779.00
2019-04-22T13:41:14.840Z,94779.00
2019-04-22T13:43:38.729Z,94764.00
2019-04-22T13:46:12.346Z,94762.00
2019-04-22T13:49:09.680Z,94761.00
2019-04-22T13:52:02.386Z,94763.00
2019-04-22T13:56:50.612Z,94756.00
2019-04-22T13:59:11.294Z,94747.00
2019-04-22T14:01:50.687Z,94740.00
2019-04-22T14:04:32.657Z,94741.00
2019-04-22T14:07:05.195Z,94737.00
2019-04-22T14:09:38.207Z,94727.00
2019-04-22T14:12:13.662Z,94718.00
2019-04-22T14:14:45.835Z,94728.00
2019-04-22T14:17:18.797Z,94715.00
2019-04-22T14:19:50.918Z,94710.00
2019-04-22T14:22:22.775Z,94712.00
2019-04-22T14:24:54.885Z,94709.00
2019-04-22T14:27:38.268Z,94702.00
2019-04-22T14:30:01.990Z,94698.00
2019-04-22T14:32:36.053Z,94684.00
2019-04-22T14:35:09.230Z,94694.00
2019-04-22T14:37:42.448Z,94695.00
2019-04-22T14:40:18.766Z,94696.00
2019-04-22T14:43:09.910Z,94700.00
2019-04-22T14:46:01.056Z,94678.00
2019-04-22T14:48:19.940Z,94679.00
2019-04-22T14:50:51.637Z,94669.00
2019-04-22T14:53:27.655Z,94669.00
2019-04-22T14:55:40.386Z,94669.00
2019-04-22T14:58:13.185Z,94668.00
2019-04-22T15:00:45.945Z,94664.00
2019-04-22T15:03:19.587Z,94667.00
2019-04-22T15:05:52.317Z,94658.00
2019-04-22T15:08:24.871Z,94658.00
2019-04-22T15:10:58.256Z,94658.00
2019-04-22T15:13:31.568Z,94656.00
2019-04-22T15:16:23.794Z,94652.00
2019-04-22T15:19:22.033Z,94657.00
2019-04-22T15:21:54.638Z,94646.00
2019-04-22T15:24:27.517Z,94645.00
2019-04-22T15:27:00.860Z,94629.00
2019-04-22T15:29:33.674Z,94634.00
2019-04-22T15:32:07.341Z,94629.00
2019-04-22T15:34:39.596Z,94628.00
2019-04-22T15:37:11.988Z,94641.00
2019-04-22T15:39:45.605Z,94639.00
2019-04-22T15:42:27.632Z,94633.00
2019-04-22T15:44:53.788Z,94619.00
2019-04-22T15:47:27.028Z,94617.00
2019-04-22T15:50:00.256Z,94616.00
2019-04-22T15:52:41.967Z,94615.00
2019-04-22T15:55:09.025Z,94609.00
2019-04-22T15:57:42.048Z,94612.00
2019-04-22T16:00:29.426Z,94613.00
2019-04-22T16:02:49.889Z,94614.00
2019-04-22T16:05:22.697Z,94612.00
2019-04-22T16:07:55.175Z,94606.00
2019-04-22T16:10:28.048Z,94611.00
2019-04-22T16:13:09.389Z,94605.00
2019-04-22T16:15:36.351Z,94609.00
2019-04-22T16:18:09.421Z,94601.00
2019-04-22T16:20:43.913Z,94593.00
2019-04-22T16:23:40.436Z,94600.00
2019-04-22T16:26:18.005Z,94594.00
2019-04-22T16:28:52.739Z,94608.00
2019-04-22T16:31:25.101Z,94593.00
2019-04-22T16:33:58.417Z,94590.00
2019-04-22T16:36:31.066Z,94585.00
2019-04-22T16:39:04.703Z,94578.00
2019-04-22T16:41:37.136Z,94576.00
2019-04-22T16:44:09.539Z,94579.00
2019-04-22T16:46:43.313Z,94578.00
2019-04-22T16:49:15.971Z,94569.00
2019-04-22T16:51:49.947Z,94573.00
2019-04-22T16:54:22.234Z,94565.00
2019-04-22T16:56:54.361Z,94578.00
2019-04-22T16:59:26.763Z,94569.00
2019-04-22T17:02:20.639Z,94570.00
2019-04-22T17:04:59.647Z,94575.00
2019-04-22T17:07:31.981Z,94573.00
2019-04-22T17:10:04.211Z,94562.00
2019-04-22T17:12:44.331Z,94566.00
2019-04-22T17:15:12.709Z,94558.00
2019-04-22T17:17:45.295Z,94560.00
2019-04-22T17:20:17.442Z,94553.00
2019-04-22T17:22:49.543Z,94561.00
2019-04-22T17:25:22.476Z,94561.00
2019-04-22T17:27:55.257Z,94562.00
2019-04-22T17:30:29.027Z,94565.00
2019-04-22T17:33:03.153Z,94563.00
2019-04-22T17:35:36.017Z,94562.00
2019-04-22T17:38:16.350Z,94564.00
2019-04-22T17:40:55.867Z,94557.00
2019-04-22T17:43:50.570Z,94558.00
2019-04-22T17:46:19.620Z,94557.00
2019-04-22T17:48:57.646Z,94561.00
2019-04-22T17:51:38.183Z,94563.00
2019-04-22T17:54:12.138Z,94557.00
2019-04-22T17:56:43.649Z,94569.00
2019-04-22T17:59:20.386Z,94569.00
2019-04-22T18:01:43.875Z,94569.00
2019-04-22T18:04:04.818Z,94563.00
2019-04-22T18:07:03.840Z,94559.00
2019-04-22T18:10:06.653Z,94562.00
2019-04-22T18:12:13.021Z,94557.00
2019-04-22T18:14:59.831Z,94565.00
2019-04-22T18:17:17.270Z,94559.00
2019-04-22T18:19:46.257Z,94562.00
2019-04-22T18:22:16.429Z,94568.00
2019-04-22T18:24:50.432Z,94562.00
2019-04-22T18:27:43.818Z,94564.00
2019-04-22T18:29:55.805Z,94568.00
2019-04-22T18:32:30.776Z,94567.00
2019-04-22T18:35:11.895Z,94568.00
2019-04-22T18:37:43.752Z,94566.00
2019-04-22T18:40:18.251Z,94562.00
2019-04-22T18:42:56.551Z,94565.00
2019-04-22T18:45:45.468Z,94559.00
2019-04-22T18:47:55.461Z,94562.00
2019-04-22T18:50:52.837Z,94559.00
2019-04-22T18:53:44.620Z,94557.00
2019-04-22T18:56:31.510Z,94561.00
2019-04-22T18:58:51.325Z,94558.00
2019-04-22T19:01:13.208Z,94557.00
2019-04-22T19:03:55.160Z,94560.00
2019-04-22T19:06:56.189Z,94556.00
2019-04-22T19:09:16.716Z,94554.00
2019-04-22T19:12:03.148Z,94555.00
2019-04-22T19:14:25.320Z,94555.00
2019-04-22T19:17:07.365Z,94555.00
2019-04-22T19:21:57.530Z,94556.00
2019-04-22T19:24:37.209Z,94565.00
2019-04-22T19:27:09.117Z,94564.00
2019-04-22T19:29:49.212Z,94568.00
2019-04-22T19:32:22.425Z,94571.00
2019-04-22T19:34:48.195Z,94561.00
2019-04-22T19:37:25.788Z,94568.00
2019-04-22T19:40:10.482Z,94563.00
2019-04-22T19:45:08.856Z,94565.00
2019-04-22T19:47:43.564Z,94562.00
2019-04-22T19:50:16.517Z,94563.00
2019-04-22T19:52:56.666Z,94565.00
2019-04-22T19:55:25.400Z,94565.00
2019-04-22T19:57:54.357Z,94560.00
2019-04-22T20:00:38.675Z,94552.00
2019-04-22T20:03:46.376Z,94555.00
2019-04-22T20:06:27.335Z,94557.00
2019-04-22T20:08:59.716Z,94554.00
2019-04-22T20:11:34.209Z,94554.00
2019-04-22T20:14:12.080Z,94555.00
2019-04-22T20:16:41.325Z,94547.00
2019-04-22T20:19:21.936Z,94550.00
2019-04-22T20:21:51.241Z,94554.00
2019-04-22T20:24:12.001Z,94536.00
2019-04-22T20:27:08.913Z,94545.00
2019-04-22T20:29:37.330Z,94529.00
2019-04-22T20:32:05.524Z,94527.00
2019-04-22T20:34:47.445Z,94526.00
2019-04-22T20:37:18.003Z,94524.00
2019-04-22T20:39:48.201Z,94529.00
2019-04-22T20:42:31.338Z,94530.00
2019-04-22T20:44:57.139Z,94527.00
2019-04-22T20:47:22.036Z,94518.00
2019-04-22T20:50:07.997Z,94513.00
2019-04-22T20:52:38.673Z,94507.00
2019-04-22T20:55:07.768Z,94518.00
2019-04-22T20:57:49.519Z,94509.00
2019-04-22T21:00:15.169Z,94517.00
2019-04-22T21:02:45.500Z,94511.00
2019-04-22T21:05:20.830Z,94506.00
2019-04-22T21:08:02.481Z,94506.00
2019-04-22T21:10:30.457Z,94507.00
2019-04-22T21:13:03.410Z,94502.00
2019-04-22T21:15:45.618Z,94502.00
2019-04-22T21:18:13.387Z,94501.00
2019-04-22T21:20:51.711Z,94511.00
2019-04-22T21:23:21.652Z,94502.00
2019-04-22T21:26:00.922Z,94496.00
2019-04-22T21:28:36.713Z,94501.00
2019-04-22T21:31:05.835Z,94495.00
2019-04-22T21:33:40.393Z,94496.00
2019-04-22T21:36:20.637Z,94503.00
2019-04-22T21:38:43.663Z,94494.00
2019-04-22T21:41:18.977Z,94489.00
2019-04-22T21:43:52.670Z,94485.00
2019-04-22T21:46:32.404Z,94480.00
2019-04-22T21:48:59.938Z,94476.00
2019-04-22T21:51:39.742Z,94470.00
2019-04-22T21:54:16.873Z,94470.00
2019-04-22T21:57:18.885Z,94459.00
2019-04-22T21:59:40.645Z,94471.00
2019-04-22T22:02:25.582Z,94473.00
2019-04-22T22:04:47.282Z,94466.00
2019-04-22T22:07:13.596Z,94465.00
2019-04-22T22:09:59.655Z,94460.00
2019-04-22T22:12:36.183Z,94462.00
2019-04-22T22:15:07.140Z,94458.00
2019-04-22T22:17:40.074Z,94457.00
2019-04-22T22:20:09.976Z,94457.00
2019-04-22T22:22:51.971Z,94457.00
2019-04-22T22:25:26.546Z,94453.00
2019-04-22T22:27:58.656Z,94442.00
2019-04-22T22:33:05.899Z,94441.00
2019-04-22T22:35:39.346Z,94436.00
2019-04-22T22:38:13.355Z,94427.00
2019-04-22T22:40:28.600Z,94427.00
2019-04-22T22:43:11.749Z,94425.00
2019-04-22T22:45:43.806Z,94426.00
2019-04-22T22:48:38.740Z,94418.00
2019-04-22T22:50:58.970Z,94421.00
2019-04-22T22:53:40.136Z,94413.00
2019-04-22T22:56:14.303Z,94410.00
2019-04-22T22:58:50.591Z,94417.00
2019-04-22T23:01:24.206Z,94413.00
2019-04-22T23:03:57.702Z,94404.00
2019-04-22T23:06:32.795Z,94396.00
2019-04-22T23:09:05.683Z,94405.00
2019-04-22T23:11:53.778Z,94403.00
2019-04-22T23:14:07.833Z,94409.00
2019-04-22T23:16:31.454Z,94396.00
2019-04-22T23:19:02.294Z,94405.00
2019-04-22T23:21:43.346Z,94396.00
2019-04-22T23:24:37.763Z,94399.00
2019-04-22T23:27:10.420Z,94402.00
2019-04-22T23:29:55.592Z,94394.00
2019-04-22T23:32:31.811Z,94383.00
2019-04-22T23:35:16.743Z,94379.00
2019-04-22T23:37:50.027Z,94379.00
2019-04-22T23:40:32.846Z,94370.00
2019-04-22T23:42:58.694Z,94368.00
2019-04-22T23:45:42.909Z,94369.00
2019-04-22T23:48:08.326Z,94362.00
2019-04-22T23:50:47.277Z,94356.00
2019-04-22T23:53:33.130Z,94355.00
2019-04-22T23:56:13.536Z,94351.00
2019-04-22T23:58:53.072Z,94351.00
